Tiempo atmosférico en la estación meteorológica de A Pobra de Trives, Ourense (840 m.)

Fecha
DESCASC
Temp. máxima en grados centígrados (hora)
DESCASC
Temp. mínima en grados centígrados (hora)
DESCASC
Temp. media en grados centígrados
DESCASC
Racha de viento máxima en m/sg (hora)
DESCASC
Velocidad máxima media en intervalos de 10 minutos(hora)
DESCASC
Precipitaciones diarias en mm
DESCASC
Precipitaciones de 00:00 a 06:00 en mm
DESCASC
Precipitaciones de 06:00 a 12:00 en mm
DESCASC
Precipitaciones de 12:00 a 18:00 en mm
DESCASC
Precipitaciones de 18:00 a 24:00 en mm
DESCASC
21-08-2017 36.7 (15:20) 17.6 (03:30) 27.2 9.72 (18:50) 4.17 (21:00) 0 0 0 0 0
20-08-2017 33.9 (18:40) 11.3 (08:00) 22.6 7.22 (16:40) 3.61 (16:40) 0 0 0 0 0
19-08-2017 29.7 (17:30) 11.4 (06:40) 20.6 8.33 (18:50) 4.17 (22:50) 0 0 0 0 0
18-08-2017 27.1 (18:20) 14 (07:20) 20.6 8.61 (16:00) 4.17 (23:59) 0 0 0 0 0
17-08-2017 30.3 (17:30) 13.1 (00:00) 21.7 8.06 (15:40) 3.89 (15:40) 0 0 0 0 0
16-08-2017 28.7 (17:10) 9.6 (00:00) 19.2 8.89 (17:30) 3.89 (17:30) 0 0 0 0 0
15-08-2017 27.3 (17:10) 15.3 (00:00) 21.3 9.44 (15:40) 4.17 (16:50) 0 0 0 0 0
14-08-2017 32.6 (14:20) 14 (06:50) 23.3 9.44 (16:00) 4.72 (16:40) 0 0 0 0 0
13-08-2017 32.2 (17:20) 11.5 (00:00) 21.9 8.33 (17:40) 3.89 (23:20) 0 0 0 0 0
12-08-2017 30.6 (18:00) 10.1 (00:00) 20.4 8.33 (17:50) 3.89 (22:00) 0 0 0 0 0
11-08-2017 28.2 (18:10) 7 (00:00) 17.6 8.61 (19:40) 4.17 (19:40) 0 0 0 0 0
10-08-2017 25.1 (17:40) 4.6 (00:00) 14.9 9.17 (20:10) 3.89 (22:50) 0 0 0 0 0
09-08-2017 19.9 (16:00) 7.5 (00:00) 13.7 11.67 (12:40) 4.44 (12:40) 0 0 0 0 0
08-08-2017 21.7 (18:30) 7.2 (00:00) 14.5 9.17 (22:00) 4.17 (23:00) 0 0 0 0 0
07-08-2017 22.7 (12:10) 11.6 (00:00) 17.2 11.11 (13:50) 5.56 (14:20) 0 0 0 0 0
06-08-2017 28 (17:30) 8.6 (00:00) 18.3 8.61 (17:40) 3.89 (17:30) 0 0 0 0 0
05-08-2017 24.9 (16:10) 13.1 (00:00) 19 11.11 (20:50) 5.56 (20:50) 0 0 0 0 0
04-08-2017 30.9 (17:00) 16.4 (00:00) 23.6 9.72 (16:00) 4.72 (16:40) 0 0 0 0 0
03-08-2017 28.8 (18:10) 14 (00:00) 21.4 10.28 (16:50) 4.44 (16:10) 0 0 0 0 0
02-08-2017 28.8 (18:30) 8.6 (00:00) 18.7 9.17 (18:50) 4.17 (17:20) 0 0 0 0 0
01-08-2017 24.8 (18:50) 12 (00:00) 18.4 9.17 (17:10) 3.89 (17:10) 0 0 0 0 0
31-07-2017 23 (19:10) 11 (00:00) 17 8.89 (00:10) 3.89 (00:20) 0 0 0 0 0
30-07-2017 24.4 (15:30) 13.3 (00:00) 18.8 11.11 (14:00) 4.44 (13:50) 0 0 0 0 0
29-07-2017 29.5 (16:20) 15.4 (00:00) 22.4 10.28 (17:00) 5 (14:40) 0 0 0 0 0
28-07-2017 29.1 (16:30) 9.1 (00:00) 19.1 10 (16:00) 4.44 (17:00) 0 0 0 0 0
27-07-2017 29.1 (18:00) 11.8 (00:00) 20.5 10.28 (16:40) 4.44 (16:40) 0 0 0 0 0
26-07-2017 30.3 (17:40) 11.5 (00:00) 20.9 9.17 (16:10) 3.89 (16:10) 0 0 0 0 0
25-07-2017 27.3 (17:30) 10.1 (00:00) 18.7 10 (18:20) 4.17 (21:40) 0 0 0 0 0
24-07-2017 24.3 (16:00) 13.3 (00:00) 18.8 9.17 (18:30) 4.44 (16:20) 0.4 0.2 0 0.2 0
23-07-2017 25.8 (16:50) 8.7 (00:00) 17.2 8.89 (00:20) 4.17 (00:30) 0 0 0 0 0

Gráficas

Temp. máximas Temp. mínimas Temp. medias Precipitaciones Rachas de viento máximas Velocidades máximas media en intervalos de 10 minutos

Datos horarios

Fecha y hora oficial Temperatura (ºC) Velocidad del viento (km/h) Dirección del viento Racha (km/h) Dirección de racha Precipitación (mm) Presión (hPa) Tendencia (hPa) Humedad (%)
2017-08-21 23:00:00 23.5 12 Oeste 23 Noroeste 0 922.7 1.9 38
2017-08-21 22:00:00 25.1 12 Oeste 23 Oeste 0 922 1.5 36
2017-08-21 21:00:00 28.2 15 Oeste 30 Oeste 0 921.4 0.9 27
2017-08-21 20:00:00 30.9 14 Oeste 29 Oeste 0 920.8 0.2 24
2017-08-21 19:00:00 33.9 8 Oeste 35 Sur 0 920.5 -0.6 19
2017-08-21 18:00:00 33.5 8 Sur 27 Sudeste 0 920.5 -1.1 20
2017-08-21 17:00:00 35.1 9 Sur 28 Sur 0 920.6 -1.7 17
2017-08-21 16:00:00 35.7 13 Sur 31 Sudoeste 0 921.1 -1.9 15
2017-08-21 15:00:00 35.7 5 Sur 17 Este 0 921.6 -1.8 14
2017-08-21 14:00:00 34 10 Este 17 Sudeste 0 922.3 -1.4 17
2017-08-21 13:00:00 31.5 6 Este 16 Sudeste 0 923 -0.9 19
2017-08-21 12:00:00 28.7 8 Este 18 Sudeste 0 923.4 -0.6 23
2017-08-21 11:00:00 26.2 9 Este 18 Este 0 923.7 -0.3 28
2017-08-21 10:00:00 24.1 8 Este 18 Este 0 923.9 0 31
2017-08-21 09:00:00 21.1 6 Este 11 Nordeste 0 924 -0.3 41
2017-08-21 08:00:00 18 3 Nordeste 10 Nordeste 0 924 -0.5 46
2017-08-21 07:00:00 17.8 2 Sur 6 Sudoeste 0 923.9 -0.8 47
2017-08-21 06:00:00 17.8 3 Sudoeste 6 Sur 0 924.3 -0.8 47
2017-08-21 05:00:00 18.5 2 Sudeste 9 Nordeste 0 924.5 -0.6 45
2017-08-21 04:00:00 18.2 4 Este 11 Nordeste 0 924.7 -0.4 48
2017-08-21 03:00:00 18 7 Noroeste 15 Noroeste 0 925.1 -0.1 56
2017-08-21 02:00:00 19.2 3 Oeste 15 Noroeste 0 925.1 0.1 52
2017-08-21 01:00:00 19.5 8 Noroeste 14 Noroeste 0 925.1 0.3 55
2017-08-21 00:00:00 20.9 8 Noroeste 17 Oeste 0 925.2 0.8 51
2017-08-20 23:00:00 22.3 8 Noroeste 16 Oeste 0 925 0.7 50
2017-08-20 22:00:00 25.1 6 Oeste 12 Oeste 0 924.8 0.3 44
2017-08-20 21:00:00 27.9 5 Oeste 15 Noroeste 0 924.4 -0.5 34
2017-08-20 20:00:00 30.4 6 Noroeste 17 Noroeste 0 924.3 -1 26
2017-08-20 19:00:00 33.4 6 Norte 18 Noroeste 0 924.5 -1.5 21
2017-08-20 18:00:00 33.4 6 Norte 23 Oeste 0 924.9 -1.5 21
2017-08-20 17:00:00 33.3 9 Noroeste 26 Oeste 0 925.3 -1.3 22
2017-08-20 16:00:00 31.9 5 Sudoeste 15 Sudeste 0 926 -1 20
2017-08-20 15:00:00 31.1 6 Norte 17 Sudeste 0 926.4 -0.8 24
2017-08-20 14:00:00 29.9 5 Nordeste 15 Nordeste 0 926.6 -0.5 25
2017-08-20 13:00:00 27.4 6 Este 19 Nordeste 0 927 0 30
2017-08-20 12:00:00 24.9 8 Este 22 Este 0 927.2 0.2 35
2017-08-20 11:00:00 21.7 6 Este 16 Este 0 927.1 0.1 45
2017-08-20 10:00:00 19.5 6 Nordeste 11 Nordeste 0 927 0.4 52
2017-08-20 09:00:00 16.5 2 Norte 12 Noroeste 0 927 0.2 65
2017-08-20 08:00:00 11.8 9 Noroeste 18 Noroeste 0 927 0.3 76
2017-08-20 07:00:00 11.7 8 Noroeste 11 Noroeste 0 926.6 -0.3 76
2017-08-20 06:00:00 12.3 4 Noroeste 13 Noroeste 0 926.8 -0.1 75
2017-08-20 05:00:00 11.9 6 Noroeste 11 Noroeste 0 926.7 -0.4 75
2017-08-20 04:00:00 12.4 4 Oeste 12 Noroeste 0 926.9 -0.3 73
2017-08-20 03:00:00 12.2 6 Noroeste 10 Oeste 0 926.9 -0.3 73
2017-08-20 02:00:00 13.4 7 Oeste 13 Noroeste 0 927.1 0 73
2017-08-20 01:00:00 14.7 7 Noroeste 17 Oeste 0 927.2 0.6 71
2017-08-20 00:00:00 15.5 12 Noroeste 24 Oeste 0 927.2 0.9 70
2017-08-19 23:00:00 17.2 15 Oeste 30 Noroeste 0 927.1 1.4 68
2017-08-19 22:00:00 18.8 10 Oeste 30 Oeste 0 926.6 1.2 59
2017-08-19 21:00:00 21.4 12 Oeste 25 Oeste 0 926.3 1 51
2017-08-19 20:00:00 24.3 10 Oeste 27 Noroeste 0 925.7 0.2 44
2017-08-19 19:00:00 28.6 9 Noroeste 30 Noroeste 0 925.4 -0.5 28
2017-08-19 18:00:00 29.7 9 Oeste 27 Oeste 0 925.3 -0.7 20
2017-08-19 17:00:00 29.4 9 Noroeste 22 Noroeste 0 925.5 -0.8 19
2017-08-19 16:00:00 28 4 Norte 19 Noroeste 0 925.9 -0.6 24
2017-08-19 15:00:00 27.9 9 Noroeste 26 Oeste 0 926 -0.8 31
2017-08-19 14:00:00 26.5 7 Noroeste 13 Nordeste 0 926.3 -0.6 40
2017-08-19 13:00:00 24 3 Este 16 Este 0 926.5 -0.2 45
2017-08-19 12:00:00 21.3 4 Norte 15 Sudeste 0 926.8 0.2 59
2017-08-19 11:00:00 17.7 5 Nordeste 10 Nordeste 0 926.9 0.7 74
2017-08-19 10:00:00 14.6 2 Sur 9 Noroeste 0 926.7 0.7 89
2017-08-19 09:00:00 12.8 5 Noroeste 10 Noroeste 0 926.6 1 93
2017-08-19 08:00:00 12.7 3 Oeste 13 Oeste 0 926.2 0.7 92
2017-08-19 07:00:00 11.8 8 Noroeste 15 Noroeste 0 926 0.5 93
2017-08-19 06:00:00 11.5 7 Noroeste 15 Oeste 0 925.6 -0.2 90
2017-08-19 05:00:00 12.8 6 Noroeste 20 Oeste 0 925.5 -0.5 90
2017-08-19 04:00:00 13.5 7 Oeste 19 Oeste 0 925.5 -0.5 90
2017-08-19 03:00:00 14 10 Oeste 21 Oeste 0 925.8 -0.2 90
2017-08-19 02:00:00 14.8 9 Oeste 22 Oeste 0 926 -0.2 88
2017-08-19 01:00:00 15.5 11 Noroeste 27 Oeste 0 926 0.4 86
2017-08-19 00:00:00 17 15 Oeste 28 Oeste 0 926 0.8 81
2017-08-18 23:00:00 18.1 10 Oeste 19 Oeste 0 926.2 1.1 74
2017-08-18 22:00:00 20.1 6 Oeste 15 Sudoeste 0 925.6 0.6 59
2017-08-18 21:00:00 22.2 4 Oeste 21 Norte 0 925.2 0.5 48
2017-08-18 20:00:00 23.8 9 Noroeste 25 Noroeste 0 925.1 -0.2 43
2017-08-18 19:00:00 26.4 10 Noroeste 26 Noroeste 0 925 -1 34
2017-08-18 18:00:00 27 11 Oeste 23 Noroeste 0 924.7 -1.4 33
2017-08-18 17:00:00 26.5 9 Norte 30 Norte 0 925.3 -0.9 36
2017-08-18 16:00:00 26.3 12 Noroeste 31 Noroeste 0 926 0 36
2017-08-18 15:00:00 24.9 10 Noroeste 29 Noroeste 0 926.1 -0.1 45
2017-08-18 14:00:00 26.5 11 Noroeste 27 Noroeste 0 926.2 0.4 42
2017-08-18 13:00:00 25.8 9 Noroeste 24 Noroeste 0 926 0.5 42
2017-08-18 12:00:00 23.6 8 Noroeste 19 Oeste 0 926.2 0.9 56
2017-08-18 11:00:00 22 4 Oeste 15 Noroeste 0 925.8 0.2 60
2017-08-18 10:00:00 19.2 4 Noroeste 11 Noroeste 0 925.5 0.1 72
2017-08-18 09:00:00 15.8 5 Noroeste 14 Noroeste 0 925.3 0.1 84
2017-08-18 08:00:00 14.8 4 Sudoeste 14 Noroeste 0 925.6 0 86
2017-08-18 07:00:00 14.3 5 Noroeste 13 Noroeste 0 925.4 0.1 87
2017-08-18 06:00:00 15.5 6 Oeste 12 Oeste 0 925.2 -0.4 84
2017-08-18 05:00:00 16.1 9 Oeste 22 Oeste 0 925.6 -0.4 85
2017-08-18 04:00:00 15.8 6 Noroeste 15 Noroeste 0 925.3 -0.9 86
2017-08-18 03:00:00 16.5 6 Oeste 19 Oeste 0 925.6 -0.8 83
2017-08-18 02:00:00 17.4 8 Oeste 19 Noroeste 0 926 0 81
2017-08-18 01:00:00 18.3 9 Oeste 22 Oeste 0 926.2 1.1 77
2017-08-18 00:00:00 19.2 10 Oeste 22 Oeste 0 926.4 1.8 74
2017-08-17 23:00:00 20.7 9 Oeste 27 Sudoeste 0 926 1.6 62
2017-08-17 22:00:00 22.4 9 Oeste 19 Oeste 0 925.1 0.5 47
2017-08-17 21:00:00 25.1 8 Oeste 16 Oeste 0 924.6 -0.3 31
2017-08-17 20:00:00 27 9 Oeste 26 Oeste 0 924.4 -0.8 25
2017-08-17 19:00:00 30.1 9 Noroeste 24 Oeste 0 924.6 -0.8 18
2017-08-17 18:00:00 30.1 10 Noroeste 29 Oeste 0 924.9 -0.9 19
2017-08-17 17:00:00 29.6 11 Noroeste 26 Noroeste 0 925.2 -1.1 28
2017-08-17 16:00:00 29.8 10 Oeste 29 Oeste 0 925.4 -1.3 31
2017-08-17 15:00:00 29.3 12 Noroeste 29 Norte 0 925.8 -1.2 28
2017-08-17 14:00:00 28.9 10 Noroeste 23 Oeste 0 926.3 -0.7 26
2017-08-17 13:00:00 27.4 12 Noroeste 23 Oeste 0 926.7 -0.4 33
2017-08-17 12:00:00 24.8 4 Noroeste 13 Noroeste 0 927 0.1 51
2017-08-17 11:00:00 21.3 4 Sudeste 13 Este 0 927 0.4 66
2017-08-17 10:00:00 19.1 4 Este 9 Este 0 927.1 0.8 74
2017-08-17 09:00:00 16.2 3 Sur 9 Noroeste 0 926.9 0.8 85
2017-08-17 08:00:00 13.7 4 Oeste 9 Oeste 0 926.6 0.4 90
2017-08-17 07:00:00 13.3 6 Noroeste 9 Noroeste 0 926.3 -0.2 88
2017-08-17 06:00:00 14.2 5 Noroeste 15 Noroeste 0 926.1 -0.8 87
2017-08-17 05:00:00 14.7 8 Noroeste 18 Oeste 0 926.2 -0.6 88
2017-08-17 04:00:00 15.3 8 Oeste 16 Noroeste 0 926.5 -0.5 87
2017-08-17 03:00:00 16.6 7 Oeste 22 Oeste 0 926.9 -0.5 86
2017-08-17 02:00:00 16.9 10 Oeste 19 Oeste 0 926.8 -0.7 84
2017-08-17 01:00:00 17.7 5 Oeste 21 Oeste 0 927 -0.4 76
2017-08-17 00:00:00 18.8 7 Oeste 16 Oeste 0 927.4 0.6 73
2017-08-16 23:00:00 19.8 6 Sudoeste 23 Oeste 0 927.5 1 66
2017-08-16 22:00:00 21.3 11 Oeste 28 Noroeste 0 927.4 1 60
2017-08-16 21:00:00 23.6 11 Noroeste 31 Oeste 0 926.8 0.4 48
2017-08-16 20:00:00 25.4 9 Noroeste 23 Norte 0 926.5 -0.2 39
2017-08-16 19:00:00 28.5 10 Noroeste 29 Oeste 0 926.4 -0.4 31
2017-08-16 18:00:00 28.5 11 Oeste 32 Noroeste 0 926.4 -0.6 31
2017-08-16 17:00:00 28.4 11 Oeste 29 Noroeste 0 926.7 -0.4 31
2017-08-16 16:00:00 28.1 12 Oeste 26 Noroeste 0 926.8 -0.5 29
2017-08-16 15:00:00 27.7 10 Oeste 24 Oeste 0 927 -0.8 31
2017-08-16 14:00:00 26.6 9 Oeste 18 Oeste 0 927.1 -0.5 31
2017-08-16 13:00:00 25.6 6 Oeste 19 Oeste 0 927.3 0 36
2017-08-16 12:00:00 24.1 5 Noroeste 17 Noroeste 0 927.8 0.8 38
2017-08-16 11:00:00 21.2 3 Oeste 10 Nordeste 0 927.6 0.7 41
2017-08-16 10:00:00 18.1 3 Norte 12 Noroeste 0 927.3 0.7 52
2017-08-16 09:00:00 14 6 Noroeste 19 Noroeste 0 927 0.5 63
2017-08-16 08:00:00 10.1 5 Noroeste 15 Oeste 0 926.9 0.3 81
2017-08-16 07:00:00 10.2 8 Noroeste 15 Noroeste 0 926.6 0 83
2017-08-16 06:00:00 11 8 Noroeste 14 Noroeste 0 926.5 -0.1 85
2017-08-16 05:00:00 12.3 4 Noroeste 12 Noroeste 0 926.6 -0.2 84
2017-08-16 04:00:00 13.4 4 Noroeste 15 Noroeste 0 926.6 -0.1 86
2017-08-16 03:00:00 14.2 8 Oeste 12 Oeste 0 926.6 0 83
2017-08-16 02:00:00 15.2 7 Oeste 14 Oeste 0 926.8 0.4 75
2017-08-16 01:00:00 15.6 6 Oeste 19 Oeste 0 926.7 0.8 70
2017-08-16 00:00:00 16.6 8 Oeste 19 Oeste 0 926.6 1.1 65
2017-08-15 23:00:00 17.7 8 Oeste 19 Oeste 0 926.4 1.8 58
2017-08-15 22:00:00 19.6 7 Oeste 27 Oeste 0 925.9 1.6 56
2017-08-15 21:00:00 21.2 8 Oeste 28 Oeste 0 925.5 1.4 51
2017-08-15 20:00:00 23.4 13 Oeste 27 Oeste 0 924.6 0.4 44
2017-08-15 19:00:00 26.2 11 Oeste 29 Oeste 0 924.3 0 32
2017-08-15 18:00:00 27.2 14 Oeste 32 Noroeste 0 924.1 -0.3 29
2017-08-15 17:00:00 27.1 13 Oeste 31 Noroeste 0 924.2 -0.2 30
2017-08-15 16:00:00 26.6 12 Noroeste 34 Oeste 0 924.3 -0.2 31
2017-08-15 15:00:00 26.3 13 Noroeste 31 Oeste 0 924.4 -0.2 34
2017-08-15 14:00:00 26 12 Oeste 27 Noroeste 0 924.4 0.1 37
2017-08-15 13:00:00 24.9 9 Oeste 22 Noroeste 0 924.5 0.5 38
2017-08-15 12:00:00 22.6 10 Oeste 20 Oeste 0 924.6 0.9 48
2017-08-15 11:00:00 20.8 9 Noroeste 22 Noroeste 0 924.3 0.8 57
2017-08-15 10:00:00 18.1 9 Noroeste 15 Noroeste 0 924 1.1 71
2017-08-15 09:00:00 15.8 4 Oeste 10 Noroeste 0 923.7 1.1 83
2017-08-15 08:00:00 15.3 5 Oeste 15 Oeste 0 923.5 1 86
2017-08-15 07:00:00 15.5 6 Oeste 17 Oeste 0 922.9 0.5 86
2017-08-15 06:00:00 15.5 7 Oeste 19 Oeste 0 922.6 0.1 86
2017-08-15 05:00:00 15.6 8 Oeste 20 Oeste 0 922.5 -0.2 87
2017-08-15 04:00:00 15.9 6 Oeste 17 Oeste 0 922.4 -0.2 86
2017-08-15 03:00:00 15.8 6 Oeste 21 Noroeste 0 922.5 0 86
2017-08-15 02:00:00 16 11 Oeste 24 Oeste 0 922.7 0.6 85
2017-08-15 01:00:00 16.8 9 Oeste 28 Oeste 0 922.6 1.1 80
2017-08-15 00:00:00 17.6 11 Oeste 31 Oeste 0 922.5 1.4 79
2017-08-14 23:00:00 19.2 11 Oeste 21 Oeste 0 922.1 1.6 66
2017-08-14 22:00:00 21.3 8 Oeste 19 Oeste 0 921.5 1.1 47
2017-08-14 21:00:00 23.7 6 Oeste 27 Noroeste 0 921.1 0.8 44
2017-08-14 20:00:00 26.4 9 Oeste 32 Oeste 0 920.5 0.7 31
2017-08-14 19:00:00 29.4 12 Oeste 33 Oeste 0 920.4 0.6 26
2017-08-14 18:00:00 29.8 13 Oeste 34 Noroeste 0 920.3 0.3 26
2017-08-14 17:00:00 29.2 14 Oeste 33 Oeste 0 919.8 -0.3 27
2017-08-14 16:00:00 30.9 14 Noroeste 34 Oeste 0 919.8 -0.6 25
2017-08-14 15:00:00 29.6 9 Noroeste 28 Noroeste 0 920 -0.7 25
2017-08-14 14:00:00 31.5 10 Noroeste 22 Noroeste 0 920.1 -0.6 21
2017-08-14 13:00:00 29.2 5 Este 17 Sudeste 0 920.4 -0.1 28
2017-08-14 12:00:00 26.6 9 Este 17 Sudeste 0 920.7 0.6 33
2017-08-14 11:00:00 23.7 4 Norte 9 Norte 0 920.7 0.7 43
2017-08-14 10:00:00 22.1 4 Norte 11 Noroeste 0 920.5 0.9 48
2017-08-14 09:00:00 17.4 5 Noroeste 14 Noroeste 0 920.1 0.5 60
2017-08-14 08:00:00 14.7 7 Noroeste 14 Noroeste 0 920 0 66
2017-08-14 07:00:00 14 5 Noroeste 13 Noroeste 0 919.6 -0.6 70
2017-08-14 06:00:00 14.5 8 Noroeste 14 Noroeste 0 919.6 -1 71
2017-08-14 05:00:00 15.3 7 Noroeste 16 Noroeste 0 920 -0.9 69
2017-08-14 04:00:00 16.2 10 Noroeste 16 Noroeste 0 920.2 -1 68
2017-08-14 03:00:00 16.7 10 Noroeste 17 Noroeste 0 920.6 -0.8 68
2017-08-14 02:00:00 17.9 9 Noroeste 12 Noroeste 0 920.9 -0.4 63
2017-08-14 01:00:00 19.2 5 Noroeste 22 Noroeste 0 921.2 0.3 59
2017-08-14 00:00:00 20.8 12 Oeste 28 Noroeste 0 921.4 0.9 53
2017-08-13 23:00:00 22.2 12 Oeste 27 Oeste 0 921.3 0.9 49
2017-08-13 22:00:00 23.7 10 Oeste 22 Oeste 0 920.9 0.5 45
2017-08-13 21:00:00 26.2 4 Noroeste 15 Noroeste 0 920.5 -0.2 30
2017-08-13 20:00:00 28.7 6 Oeste 21 Norte 0 920.4 -0.7 24
2017-08-13 19:00:00 31.9 8 Oeste 22 Noroeste 0 920.4 -1.1 19
2017-08-13 18:00:00 31.6 9 Norte 30 Oeste 0 920.7 -1.3 20
2017-08-13 17:00:00 31.8 10 Oeste 24 Oeste 0 921.1 -1.5 20
2017-08-13 16:00:00 31.7 9 Oeste 21 Oeste 0 921.5 -1.7 21
2017-08-13 15:00:00 31 5 Nordeste 15 Este 0 922 -1.8 21
2017-08-13 14:00:00 29.9 7 Norte 16 Este 0 922.6 -1.3 23
2017-08-13 13:00:00 27.4 8 Este 16 Nordeste 0 923.2 -0.8 25
2017-08-13 12:00:00 24.6 9 Este 21 Este 0 923.8 0.1 32
2017-08-13 11:00:00 21.7 9 Este 22 Este 0 923.9 0.3 43
2017-08-13 10:00:00 18.9 4 Este 10 Nordeste 0 924 0.4 55
2017-08-13 09:00:00 14.9 6 Noroeste 12 Noroeste 0 923.7 0.1 70
2017-08-13 08:00:00 11.8 8 Noroeste 10 Noroeste 0 923.6 -0.2 79
2017-08-13 07:00:00 11.8 5 Noroeste 10 Noroeste 0 923.6 -0.6 79
2017-08-13 06:00:00 12.7 6 Noroeste 13 Noroeste 0 923.6 -0.8 76
2017-08-13 05:00:00 13 6 Noroeste 13 Noroeste 0 923.8 -1.2 73
2017-08-13 04:00:00 13.8 0 Calma 12 Oeste 0 924.2 -0.9 70
2017-08-13 03:00:00 14.2 7 Noroeste 11 Oeste 0 924.4 -1.1 67
2017-08-13 02:00:00 14.9 3 Sudoeste 19 Noroeste 0 925 -0.5 64
2017-08-13 01:00:00 16.2 9 Noroeste 19 Noroeste 0 925.1 0 59
2017-08-13 00:00:00 17.4 9 Noroeste 21 Oeste 0 925.5 0.6 56
2017-08-12 23:00:00 18.8 9 Noroeste 27 Oeste 0 925.5 0.8 49
2017-08-12 22:00:00 21.2 14 Sudoeste 27 Sudoeste 0 925.1 0.3 42
2017-08-12 21:00:00 23.8 9 Oeste 24 Noroeste 0 924.9 -0.1 40
2017-08-12 20:00:00 26.1 11 Noroeste 28 Norte 0 924.7 -0.4 30
2017-08-12 19:00:00 29.3 8 Oeste 27 Oeste 0 924.8 -1 22
2017-08-12 18:00:00 30.4 11 Oeste 30 Oeste 0 925 -1.1 19
2017-08-12 17:00:00 30.1 10 Noroeste 25 Oeste 0 925.1 -1.5 19
2017-08-12 16:00:00 29.9 9 Oeste 26 Oeste 0 925.8 -1.2 21
2017-08-12 15:00:00 29.8 10 Oeste 23 Norte 0 926.1 -1.2 20
2017-08-12 14:00:00 28.5 5 Nordeste 15 Este 0 926.6 -0.7 20
2017-08-12 13:00:00 26.2 5 Este 15 Sudeste 0 927 -0.3 26
2017-08-12 12:00:00 23.7 5 Nordeste 15 Este 0 927.3 0.1 32
2017-08-12 11:00:00 20.7 6 Nordeste 13 Nordeste 0 927.3 0.5 39
2017-08-12 10:00:00 18.6 5 Este 9 Este 0 927.3 0.8 50
2017-08-12 09:00:00 14.8 3 Noroeste 9 Noroeste 0 927.2 0.8 64
2017-08-12 08:00:00 10.3 7 Noroeste 12 Noroeste 0 926.8 0.3 79
2017-08-12 07:00:00 10.2 6 Noroeste 10 Noroeste 0 926.5 -0.3 76
2017-08-12 06:00:00 10.6 7 Noroeste 13 Noroeste 0 926.4 -0.6 72
2017-08-12 05:00:00 11.2 5 Noroeste 12 Noroeste 0 926.5 -0.6 71
2017-08-12 04:00:00 12 5 Noroeste 12 Noroeste 0 926.8 -0.2 67
2017-08-12 03:00:00 12.4 7 Noroeste 13 Noroeste 0 927 -0.2 65
2017-08-12 02:00:00 13.3 8 Noroeste 18 Noroeste 0 927.1 -0.2 66
2017-08-12 01:00:00 14.6 10 Noroeste 22 Oeste 0 927 0.1 65
2017-08-12 00:00:00 15.6 11 Noroeste 22 Oeste 0 927.2 0.5 66
2017-08-11 23:00:00 17.4 10 Oeste 21 Oeste 0 927.3 0.7 62
2017-08-11 22:00:00 19.4 12 Oeste 21 Oeste 0 926.9 0.5 53
2017-08-11 21:00:00 21.8 10 Oeste 21 Oeste 0 926.7 0.1 45
2017-08-11 20:00:00 22.8 10 Noroeste 31 Noroeste 0 926.6 -0.2 40
2017-08-11 19:00:00 26.7 12 Noroeste 27 Noroeste 0 926.4 -0.9 23
2017-08-11 18:00:00 28.1 10 Oeste 26 Oeste 0 926.6 -0.9 21
2017-08-11 17:00:00 27.7 9 Noroeste 26 Oeste 0 926.8 -1 20
2017-08-11 16:00:00 27.3 8 Noroeste 25 Noroeste 0 927.3 -1 21
2017-08-11 15:00:00 26.9 9 Oeste 24 Noroeste 0 927.5 -1.1 25
2017-08-11 14:00:00 25.1 7 Nordeste 15 Sudeste 0 927.8 -0.8 26
2017-08-11 13:00:00 23.2 4 Este 14 Sudeste 0 928.3 -0.2 34
2017-08-11 12:00:00 20.1 6 Este 14 Este 0 928.6 0.4 42
2017-08-11 11:00:00 17.3 6 Este 17 Este 0 928.6 0.5 50
2017-08-11 10:00:00 14.3 5 Este 9 Este 0 928.5 0.7 67
2017-08-11 09:00:00 11.3 5 Noroeste 9 Noroeste 0 928.2 0.2 78
2017-08-11 08:00:00 7.7 3 Noroeste 12 Noroeste 0 928.1 -0.1 89
2017-08-11 07:00:00 7.3 6 Noroeste 11 Noroeste 0 927.8 -0.5 88
2017-08-11 06:00:00 7.7 4 Noroeste 10 Noroeste 0 928 -0.7 86
2017-08-11 05:00:00 8.6 6 Noroeste 12 Noroeste 0 928.2 -0.6 85
2017-08-11 04:00:00 9.1 7 Noroeste 12 Noroeste 0 928.3 -0.9 83
2017-08-11 03:00:00 9.8 8 Noroeste 12 Oeste 0 928.7 -0.5 82
2017-08-11 02:00:00 10.5 7 Noroeste 12 Noroeste 0 928.8 -0.2 81
2017-08-11 01:00:00 11.4 8 Noroeste 18 Noroeste 0 929.2 0.9 78
2017-08-11 00:00:00 12.9 9 Oeste 25 Oeste 0 929.2 1.1 74
2017-08-10 23:00:00 14.1 12 Oeste 30 Oeste 0 929 1.1 69
2017-08-10 22:00:00 15.9 12 Oeste 25 Oeste 0 928.3 0.4 61
2017-08-10 21:00:00 18.1 10 Oeste 33 Oeste 0 928.1 0 53
2017-08-10 20:00:00 20.7 12 Oeste 27 Oeste 0 927.9 -0.5 43
2017-08-10 19:00:00 24.4 13 Oeste 28 Oeste 0 927.9 -1.2 28
2017-08-10 18:00:00 24.8 11 Oeste 27 Noroeste 0 928.1 -1.6 28
2017-08-10 17:00:00 24.8 10 Noroeste 28 Oeste 0 928.4 -1.6 29
2017-08-10 16:00:00 23.6 9 Sudeste 19 Sudeste 0 929.1 -1.3 24
2017-08-10 15:00:00 22.8 8 Nordeste 19 Nordeste 0 929.7 -0.8 27
2017-08-10 14:00:00 21.3 5 Noroeste 18 Este 0 930 -0.3 32
2017-08-10 13:00:00 19.6 8 Sudeste 22 Este 0 930.4 -0.1 36
2017-08-10 12:00:00 17.4 6 Este 18 Sudeste 0 930.5 0.3 40
2017-08-10 11:00:00 15.4 8 Este 16 Sudeste 0 930.3 0.3 47
2017-08-10 10:00:00 13.4 6 Este 10 Este 0 930.5 1 52
2017-08-10 09:00:00 9.4 6 Noroeste 12 Oeste 0 930.2 0.9 71
2017-08-10 08:00:00 5 8 Noroeste 12 Noroeste 0 930 0.7 83
2017-08-10 07:00:00 5.5 7 Noroeste 12 Noroeste 0 929.5 -0.1 81
2017-08-10 06:00:00 5.1 6 Noroeste 10 Noroeste 0 929.3 -0.4 83
2017-08-10 05:00:00 6.3 5 Noroeste 9 Noroeste 0 929.3 -0.5 80
2017-08-10 04:00:00 7.6 4 Noroeste 10 Noroeste 0 929.6 0 78
2017-08-10 03:00:00 7.3 4 Norte 7 Noroeste 0 929.7 0.3 81
2017-08-10 02:00:00 7.2 6 Noroeste 10 Oeste 0 929.8 0.9 80
2017-08-10 01:00:00 8.4 5 Oeste 12 Oeste 0 929.6 1.6 77
2017-08-10 00:00:00 9.2 6 Oeste 10 Noroeste 0 929.4 1.8 72
2017-08-09 23:00:00 11.1 4 Sudoeste 19 Noroeste 0 928.9 1.7 63
2017-08-09 22:00:00 12.2 8 Noroeste 22 Noroeste 0 928 0.9 56
2017-08-09 21:00:00 13.9 8 Norte 25 Norte 0 927.6 0.7 49
2017-08-09 20:00:00 15.5 12 Norte 32 Noroeste 0 927.2 0.3 43
2017-08-09 19:00:00 18.4 14 Norte 33 Norte 0 927.1 0.3 34
2017-08-09 18:00:00 19.2 14 Norte 36 Noroeste 0 926.9 0 34
2017-08-09 17:00:00 19 10 Nordeste 40 Noroeste 0 926.9 0 32
2017-08-09 16:00:00 19.8 15 Noroeste 37 Nordeste 0 926.8 -0.1 32
2017-08-09 15:00:00 18.3 13 Norte 32 Nordeste 0 926.9 0.3 35
2017-08-09 14:00:00 18.9 13 Nordeste 37 Noroeste 0 926.9 0.9 39
2017-08-09 13:00:00 18.2 12 Norte 42 Noroeste 0 926.9 1.1 40
2017-08-09 12:00:00 14.8 12 Norte 28 Noroeste 0 926.6 1.2 55
2017-08-09 11:00:00 14 7 Norte 17 Norte 0 926 0.8 63
2017-08-09 10:00:00 11.8 6 Oeste 13 Oeste 0 925.8 1.1 71
2017-08-09 09:00:00 10.1 3 Oeste 15 Oeste 0 925.4 0.6 78
2017-08-09 08:00:00 8.1 8 Oeste 15 Oeste 0 925.2 0.3 89
2017-08-09 07:00:00 7.9 6 Noroeste 10 Noroeste 0 924.7 -0.2 85
2017-08-09 06:00:00 9 5 Oeste 14 Oeste 0 924.8 -0.3 84
2017-08-09 05:00:00 9.5 6 Oeste 24 Oeste 0 924.9 -0.3 83
2017-08-09 04:00:00 9.7 11 Oeste 26 Oeste 0 924.9 -0.5 83
2017-08-09 03:00:00 10.7 9 Oeste 24 Oeste 0 925.1 -0.5 81
2017-08-09 02:00:00 10.7 12 Oeste 27 Oeste 0 925.2 0.1 82
2017-08-09 01:00:00 10.9 10 Oeste 24 Oeste 0 925.4 0.8 78
2017-08-09 00:00:00 11.9 8 Oeste 26 Noroeste 0 925.6 1.4 68
2017-08-08 23:00:00 13.1 15 Oeste 31 Oeste 0 925.1 1.1 65
2017-08-08 22:00:00 14.3 13 Oeste 33 Oeste 0 924.6 0.5 60
2017-08-08 21:00:00 16.1 8 Noroeste 22 Noroeste 0 924.2 0.2 50
2017-08-08 20:00:00 18.2 8 Noroeste 28 Norte 0 924 -0.3 40
2017-08-08 19:00:00 21.2 10 Noroeste 27 Noroeste 0 924.1 -0.4 32
2017-08-08 18:00:00 21.4 11 Noroeste 29 Noroeste 0 924 -0.8 32
2017-08-08 17:00:00 21.3 12 Noroeste 30 Noroeste 0 924.3 -0.8 32
2017-08-08 16:00:00 21.1 10 Oeste 27 Oeste 0 924.5 -0.8 33
2017-08-08 15:00:00 19.1 9 Noroeste 24 Noroeste 0 924.8 -0.7 39
2017-08-08 14:00:00 20.1 8 Norte 20 Norte 0 925.1 -0.2 40
2017-08-08 13:00:00 17.6 7 Noroeste 20 Norte 0 925.3 0.1 50
2017-08-08 12:00:00 14.8 7 Norte 24 Norte 0 925.5 0.7 62
2017-08-08 11:00:00 14.2 9 Noroeste 18 Oeste 0 925.3 1 70
2017-08-08 10:00:00 12.4 9 Oeste 22 Oeste 0 925.2 1.3 78
2017-08-08 09:00:00 11.5 7 Oeste 18 Oeste 0 924.8 1.2 80
2017-08-08 08:00:00 8.6 8 Oeste 18 Oeste 0 924.3 0.6 90
2017-08-08 07:00:00 7.2 6 Noroeste 16 Oeste 0 923.9 0.2 88
2017-08-08 06:00:00 7.9 6 Oeste 16 Oeste 0 923.6 -0.2 86
2017-08-08 05:00:00 8.3 8 Oeste 17 Oeste 0 923.7 -0.2 87
2017-08-08 04:00:00 8.7 8 Oeste 18 Oeste 0 923.7 0 87
2017-08-08 03:00:00 9.6 9 Oeste 21 Noroeste 0 923.8 0 86
2017-08-08 02:00:00 10.5 6 Oeste 14 Oeste 0 923.9 0.4 83
2017-08-08 01:00:00 11.4 9 Oeste 23 Oeste 0 923.7 0.9 84
2017-08-08 00:00:00 12.5 10 Noroeste 24 Oeste 0 923.8 1.8 82
2017-08-07 23:00:00 13.2 10 Oeste 27 Norte 0 923.5 2.4 80
2017-08-07 22:00:00 13.8 14 Oeste 32 Oeste 0 922.8 1.9 77
2017-08-07 21:00:00 14.9 10 Oeste 33 Oeste 0 922 1.3 71
2017-08-07 20:00:00 16.9 13 Noroeste 33 Noroeste 0 921.1 0.3 64
2017-08-07 19:00:00 19.1 11 Noroeste 30 Oeste 0 920.9 -0.1 58
2017-08-07 18:00:00 21.4 10 Oeste 30 Oeste 0 920.7 -0.4 50
2017-08-07 17:00:00 20.4 15 Oeste 36 Noroeste 0 920.8 0.1 58
2017-08-07 16:00:00 20.1 14 Oeste 35 Oeste 0 921 0.3 58
2017-08-07 15:00:00 19.9 11 Oeste 39 Oeste 0 921.1 0.8 61
2017-08-07 14:00:00 20.1 18 Oeste 40 Oeste 0 920.7 0.3 60
2017-08-07 13:00:00 20.1 14 Noroeste 29 Noroeste 0 920.7 0.3 60
2017-08-07 12:00:00 22.6 6 Noroeste 15 Noroeste 0 920.3 0 54
2017-08-07 11:00:00 19.8 5 Este 12 Sudeste 0 920.4 0.1 64
2017-08-07 10:00:00 17 3 Este 6 Este 0 920.4 0.4 78
2017-08-07 09:00:00 14.3 3 Este 8 Noroeste 0 920.3 0.1 85
2017-08-07 08:00:00 11.9 7 Noroeste 10 Oeste 0 920.3 -0.2 90
2017-08-07 07:00:00 12.3 4 Oeste 8 Oeste 0 920 -0.7 89
2017-08-07 06:00:00 12.2 7 Noroeste 11 Noroeste 0 920.2 -1.1 89
2017-08-07 05:00:00 12.5 6 Noroeste 8 Noroeste 0 920.5 -1.2 88
2017-08-07 04:00:00 12.9 4 Oeste 10 Noroeste 0 920.7 -1.4 86
2017-08-07 03:00:00 13.6 7 Noroeste 12 Oeste 0 921.3 -1 85
2017-08-07 02:00:00 14.3 8 Noroeste 21 Noroeste 0 921.7 -0.8 82
2017-08-07 01:00:00 14.8 11 Noroeste 20 Noroeste 0 922.1 -0.1 81
2017-08-07 00:00:00 15.7 10 Noroeste 23 Oeste 0 922.3 0.4 77
2017-08-06 23:00:00 17.1 11 Oeste 25 Oeste 0 922.5 0.8 72
2017-08-06 22:00:00 18.9 9 Oeste 23 Oeste 0 922.2 0.3 65
2017-08-06 21:00:00 21.2 13 Noroeste 26 Noroeste 0 921.9 -0.2 56
2017-08-06 20:00:00 23.4 12 Noroeste 29 Noroeste 0 921.7 -0.8 47
2017-08-06 19:00:00 26.4 13 Noroeste 30 Noroeste 0 921.9 -1 38
2017-08-06 18:00:00 26.9 12 Oeste 31 Oeste 0 922.1 -1.2 35
2017-08-06 17:00:00 27.7 12 Oeste 30 Oeste 0 922.5 -1.5 33
2017-08-06 16:00:00 27.3 12 Noroeste 24 Oeste 0 922.9 -1.7 35
2017-08-06 15:00:00 27 9 Oeste 19 Oeste 0 923.3 -1.8 36
2017-08-06 14:00:00 24.9 5 Este 18 Este 0 924 -1.1 39
2017-08-06 13:00:00 22.5 5 Nordeste 18 Sudeste 0 924.6 -0.5 45
2017-08-06 12:00:00 20.4 6 Sudeste 16 Sudeste 0 925.1 0.1 49
2017-08-06 11:00:00 18.1 7 Este 17 Este 0 925.1 0.3 58
2017-08-06 10:00:00 16.1 5 Este 10 Este 0 925.1 0.5 70
2017-08-06 09:00:00 12.8 4 Noroeste 9 Noroeste 0 925 0.4 80
2017-08-06 08:00:00 9.3 5 Noroeste 13 Noroeste 0 924.8 0.1 90
2017-08-06 07:00:00 8.7 8 Noroeste 14 Noroeste 0 924.6 -0.3 90
2017-08-06 06:00:00 9.2 8 Noroeste 15 Noroeste 0 924.6 -0.3 90
2017-08-06 05:00:00 9.6 8 Noroeste 17 Oeste 0 924.7 -0.7 90
2017-08-06 04:00:00 10.6 5 Oeste 14 Noroeste 0 924.9 -0.6 92
2017-08-06 03:00:00 10.6 8 Noroeste 15 Oeste 0 924.9 -0.7 90
2017-08-06 02:00:00 11.3 5 Oeste 15 Oeste 0 925.4 0 90
2017-08-06 01:00:00 11.9 6 Oeste 21 Sudoeste 0 925.5 0.7 87
2017-08-06 00:00:00 13.1 10 Oeste 30 Oeste 0 925.6 1.1 84
2017-08-05 23:00:00 13.7 12 Oeste 33 Oeste 0 925.4 1.3 82
2017-08-05 22:00:00 14.5 16 Oeste 36 Oeste 0 924.8 0.8 79
2017-08-05 21:00:00 16.6 15 Oeste 40 Oeste 0 924.5 0.5 71
2017-08-05 20:00:00 19.1 15 Noroeste 35 Noroeste 0 924.1 0.3 60
2017-08-05 19:00:00 23 16 Oeste 38 Oeste 0 924 0 47
2017-08-05 18:00:00 24.1 15 Oeste 35 Oeste 0 924 -0.6 45
2017-08-05 17:00:00 24.6 16 Oeste 38 Oeste 0 923.8 -1.2 46
2017-08-05 16:00:00 24.6 15 Oeste 32 Oeste 0 924 -1.2 48
2017-08-05 15:00:00 23.4 15 Oeste 36 Oeste 0 924.6 -0.5 55
2017-08-05 14:00:00 21.7 13 Oeste 31 Sudoeste 0 925 0.2 62
2017-08-05 13:00:00 19.7 13 Oeste 30 Oeste 0 925.2 0.5 70
2017-08-05 12:00:00 19.8 12 Oeste 27 Oeste 0 925.1 0.6 69
2017-08-05 11:00:00 20.1 12 Noroeste 23 Oeste 0 924.8 0.7 70
2017-08-05 10:00:00 17.3 8 Noroeste 19 Oeste 0 924.7 0.8 86
2017-08-05 09:00:00 15.9 9 Oeste 23 Oeste 0 924.5 0.7 91
2017-08-05 08:00:00 16.1 9 Oeste 28 Oeste 0 924.1 0.2 92
2017-08-05 07:00:00 17.2 9 Noroeste 21 Oeste 0 923.9 -0.1 90
2017-08-05 06:00:00 18.8 5 Oeste 10 Oeste 0 923.8 -0.4 85
2017-08-05 05:00:00 18.8 5 Noroeste 10 Noroeste 0 923.9 -0.5 86
2017-08-05 04:00:00 19.3 5 Noroeste 15 Oeste 0 924 -0.3 84
2017-08-05 03:00:00 19.9 6 Oeste 13 Oeste 0 924.2 -0.3 82
2017-08-05 02:00:00 20.2 3 Oeste 12 Noroeste 0 924.4 0 81
2017-08-05 01:00:00 20.1 6 Oeste 14 Oeste 0 924.3 0.4 80
2017-08-05 00:00:00 19.9 5 Oeste 14 Oeste 0 924.5 0.8 80
2017-08-04 23:00:00 20.4 6 Oeste 14 Oeste 0 924.4 0.8 76
2017-08-04 22:00:00 22.1 8 Oeste 26 Noroeste 0 923.9 0.4 69
2017-08-04 21:00:00 23.7 12 Oeste 29 Oeste 0 923.7 0.2 63
2017-08-04 20:00:00 26.3 11 Noroeste 29 Oeste 0 923.6 -0.1 54
2017-08-04 19:00:00 29 13 Noroeste 32 Noroeste 0 923.5 -0.5 44
2017-08-04 18:00:00 30 13 Oeste 30 Noroeste 0 923.5 -0.7 40
2017-08-04 17:00:00 30.8 14 Oeste 33 Oeste 0 923.7 -1 37
2017-08-04 16:00:00 30.5 14 Oeste 35 Oeste 0 924 -0.8 38
2017-08-04 15:00:00 30.2 11 Oeste 26 Oeste 0 924.2 -1.1 41
2017-08-04 14:00:00 29.7 9 Noroeste 25 Noroeste 0 924.7 -0.9 42
2017-08-04 13:00:00 29 8 Noroeste 21 Oeste 0 924.8 -0.8 43
2017-08-04 12:00:00 27.2 6 Noroeste 18 Oeste 0 925.3 0 49
2017-08-04 11:00:00 22.7 3 Sudeste 10 Este 0 925.6 0.6 67
2017-08-04 10:00:00 20.8 5 Este 9 Este 0 925.6 0.7 72
2017-08-04 09:00:00 18.4 5 Este 7 Este 0 925.3 0.3 81
2017-08-04 08:00:00 17.4 0 Calma 4 Este 0 925 0 83
2017-08-04 07:00:00 17 5 Oeste 11 Noroeste 0 924.9 -0.1 86
2017-08-04 06:00:00 17.4 4 Sudoeste 12 Sudoeste 0 925 -0.1 85
2017-08-04 05:00:00 16.7 3 Sudoeste 10 Sudoeste 0 925 -0.4 86
2017-08-04 04:00:00 16.5 6 Oeste 14 Oeste 0 925 -0.5 87
2017-08-04 03:00:00 16.8 7 Oeste 17 Oeste 0 925.1 -0.5 85
2017-08-04 02:00:00 17 8 Noroeste 23 Oeste 0 925.4 -0.1 82
2017-08-04 01:00:00 17.8 10 Noroeste 22 Oeste 0 925.5 0.4 79
2017-08-04 00:00:00 18.4 9 Oeste 21 Oeste 0 925.6 1 77
2017-08-03 23:00:00 19.7 9 Oeste 21 Sudoeste 0 925.5 1 72
2017-08-03 22:00:00 21 8 Oeste 23 Noroeste 0 925.1 0.6 67
2017-08-03 21:00:00 22.8 11 Oeste 28 Oeste 0 924.6 0.1 58
2017-08-03 20:00:00 25 9 Oeste 33 Oeste 0 924.5 -0.3 50
2017-08-03 19:00:00 28 14 Oeste 35 Oeste 0 924.5 -0.4 39
2017-08-03 18:00:00 28.6 13 Oeste 35 Oeste 0 924.5 -0.5 34
2017-08-03 17:00:00 28.6 15 Oeste 37 Sudoeste 0 924.8 -0.7 32
2017-08-03 16:00:00 28.5 14 Oeste 32 Oeste 0 924.9 -0.9 30
2017-08-03 15:00:00 28.1 11 Oeste 31 Oeste 0 925 -0.7 28
2017-08-03 14:00:00 27.2 12 Oeste 34 Oeste 0 925.5 -0.5 28
2017-08-03 13:00:00 27 9 Oeste 24 Oeste 0 925.8 -0.3 31
2017-08-03 12:00:00 25.3 9 Oeste 23 Oeste 0 925.7 0 37
2017-08-03 11:00:00 22.4 8 Oeste 19 Sudoeste 0 926 0.8 58
2017-08-03 10:00:00 18.8 2 Este 8 Este 0 926.1 1 77
2017-08-03 09:00:00 16.1 3 Nordeste 8 Sudeste 0 925.7 0.7 84
2017-08-03 08:00:00 15.8 3 Sudeste 6 Sudeste 0 925.2 0.1 86
2017-08-03 07:00:00 15.5 3 Este 9 Sudeste 0 925.1 -0.4 84
2017-08-03 06:00:00 15 3 Sur 11 Noroeste 0 925 -0.5 84
2017-08-03 05:00:00 14 8 Noroeste 12 Oeste 0 925.1 -0.9 85
2017-08-03 04:00:00 14.4 7 Oeste 17 Oeste 0 925.5 -0.5 87
2017-08-03 03:00:00 14.8 6 Oeste 20 Oeste 0 925.5 -0.2 88
2017-08-03 02:00:00 15.3 5 Noroeste 27 Oeste 0 926 0.4 83
2017-08-03 01:00:00 16.2 8 Noroeste 19 Oeste 0 926 1.2 77
2017-08-03 00:00:00 17.6 10 Oeste 23 Oeste 0 925.7 1.5 72
2017-08-02 23:00:00 19 14 Oeste 28 Oeste 0 925.6 1.7 67
2017-08-02 22:00:00 20.9 10 Oeste 25 Oeste 0 924.8 1.2 51
2017-08-02 21:00:00 23 11 Oeste 26 Oeste 0 924.2 0.6 44
2017-08-02 20:00:00 25.1 11 Oeste 31 Oeste 0 923.9 0 31
2017-08-02 19:00:00 28.1 12 Oeste 33 Oeste 0 923.6 -0.5 25
2017-08-02 18:00:00 28.3 13 Oeste 32 Noroeste 0 923.6 -0.7 22
2017-08-02 17:00:00 28.3 12 Oeste 32 Oeste 0 923.9 -0.7 17
2017-08-02 16:00:00 27.3 12 Noroeste 29 Oeste 0 924.1 -0.8 22
2017-08-02 15:00:00 27.4 9 Noroeste 24 Oeste 0 924.3 -0.8 27
2017-08-02 14:00:00 26.4 6 Norte 17 Noroeste 0 924.6 -0.5 31
2017-08-02 13:00:00 25.1 8 Noroeste 17 Nordeste 0 924.9 -0.2 34
2017-08-02 12:00:00 22.6 6 Nordeste 13 Nordeste 0 925.1 0.3 46
2017-08-02 11:00:00 19.4 6 Sudeste 13 Este 0 925.1 0.5 57
2017-08-02 10:00:00 16.8 3 Este 9 Norte 0 925.1 0.6 65
2017-08-02 09:00:00 13.1 5 Noroeste 13 Noroeste 0 924.8 0.7 72
2017-08-02 08:00:00 9.2 8 Noroeste 14 Noroeste 0 924.6 0.4 86
2017-08-02 07:00:00 8.8 6 Noroeste 14 Noroeste 0 924.5 0 86
2017-08-02 06:00:00 9.5 8 Noroeste 15 Noroeste 0 924.1 -0.5 86
2017-08-02 05:00:00 9.8 7 Noroeste 15 Noroeste 0 924.2 -0.6 86
2017-08-02 04:00:00 10.3 7 Noroeste 16 Noroeste 0 924.5 -0.5 85
2017-08-02 03:00:00 11.1 8 Noroeste 14 Oeste 0 924.6 -0.4 81
2017-08-02 02:00:00 12.7 9 Oeste 20 Oeste 0 924.8 0.2 77
2017-08-02 01:00:00 13.9 9 Oeste 22 Sudoeste 0 925 1.1 75
2017-08-02 00:00:00 14.8 9 Oeste 22 Sudoeste 0 925 2 71
2017-08-01 23:00:00 15.9 11 Oeste 21 Oeste 0 924.6 2.2 61
2017-08-01 22:00:00 18.1 9 Oeste 21 Oeste 0 923.9 1.8 50
2017-08-01 21:00:00 20.2 9 Oeste 21 Oeste 0 923 1 37
2017-08-01 20:00:00 21.9 10 Oeste 27 Noroeste 0 922.4 0.6 30
2017-08-01 19:00:00 24.7 9 Noroeste 28 Oeste 0 922.1 0.2 27
2017-08-01 18:00:00 24.3 14 Noroeste 33 Oeste 0 922 0.2 32
2017-08-01 17:00:00 24.2 13 Noroeste 31 Noroeste 0 921.8 -0.1 34
2017-08-01 16:00:00 23.3 11 Noroeste 32 Oeste 0 921.9 -0.2 39
2017-08-01 15:00:00 22.4 12 Noroeste 24 Norte 0 921.8 -0.2 45
2017-08-01 14:00:00 22.3 10 Oeste 27 Noroeste 0 921.9 0 45
2017-08-01 13:00:00 20.4 9 Oeste 21 Oeste 0 922.1 0.3 54
2017-08-01 12:00:00 16.8 4 Noroeste 15 Noroeste 0 922 1.1 66
2017-08-01 11:00:00 14.5 7 Noroeste 18 Oeste 0 921.9 1.6 77
2017-08-01 10:00:00 13.8 6 Oeste 18 Oeste 0 921.8 1.7 80
2017-08-01 09:00:00 13.1 5 Oeste 15 Oeste 0 920.9 1 83
2017-08-01 08:00:00 12 5 Oeste 20 Oeste 0 920.3 0.5 85
2017-08-01 07:00:00 12.7 10 Oeste 20 Oeste 0 920.1 0.3 86
2017-08-01 06:00:00 12.8 4 Oeste 8 Oeste 0 919.9 -0.1 86
2017-08-01 05:00:00 12.6 4 Oeste 15 Oeste 0 919.8 -0.1 87
2017-08-01 04:00:00 13 5 Noroeste 17 Oeste 0 919.8 0.1 85
2017-08-01 03:00:00 13.2 8 Oeste 23 Oeste 0 920 0.6 85
2017-08-01 02:00:00 13.5 10 Oeste 23 Oeste 0 919.9 0.9 83
2017-08-01 01:00:00 13.9 13 Oeste 27 Oeste 0 919.7 1.3 81
2017-08-01 00:00:00 14.5 12 Oeste 24 Sudoeste 0 919.4 1.4 78
2017-07-31 23:00:00 15.7 6 Sudoeste 23 Oeste 0 919 1.2 72
2017-07-31 22:00:00 17.1 12 Oeste 28 Oeste 0 918.4 0.6 67
2017-07-31 21:00:00 18.6 8 Noroeste 25 Noroeste 0 918 0.2 57
2017-07-31 20:00:00 21 8 Oeste 23 Noroeste 0 917.8 -0.4 41
2017-07-31 19:00:00 22.6 10 Oeste 23 Oeste 0 917.8 -0.5 37
2017-07-31 18:00:00 21.9 9 Noroeste 26 Noroeste 0 917.8 -0.7 41
2017-07-31 17:00:00 21.3 9 Noroeste 23 Oeste 0 918.2 -0.4 43
2017-07-31 16:00:00 20.6 6 Oeste 20 Noroeste 0 918.3 -0.3 52
2017-07-31 15:00:00 19.2 9 Noroeste 22 Noroeste 0 918.5 -0.3 57
2017-07-31 14:00:00 18.9 9 Oeste 23 Oeste 0 918.6 -0.3 58
2017-07-31 13:00:00 16.9 10 Noroeste 23 Oeste 0 918.6 0 66
2017-07-31 12:00:00 15.2 10 Oeste 21 Oeste 0 918.8 0.5 72
2017-07-31 11:00:00 15.6 7 Noroeste 19 Oeste 0 918.9 1 71
2017-07-31 10:00:00 15.3 9 Noroeste 23 Oeste 0 918.6 0.6 71
2017-07-31 09:00:00 12.5 10 Noroeste 22 Oeste 0 918.3 0.3 79
2017-07-31 08:00:00 11.1 5 Oeste 14 Noroeste 0 917.9 -0.6 83
2017-07-31 07:00:00 11.7 7 Noroeste 14 Noroeste 0 918 -0.4 82
2017-07-31 06:00:00 11.8 8 Oeste 20 Oeste 0 918 -1.1 81
2017-07-31 05:00:00 12.3 10 Oeste 27 Noroeste 0 918.5 -1.3 80
2017-07-31 04:00:00 12.7 6 Noroeste 18 Noroeste 0 918.4 -1.9 83
2017-07-31 03:00:00 13.1 9 Oeste 21 Sudoeste 0 919.1 -1.3 80
2017-07-31 02:00:00 13.9 6 Sudoeste 17 Oeste 0 919.8 -0.4 79
2017-07-31 01:00:00 13.9 6 Oeste 32 Noroeste 0 920.3 0.7 80
2017-07-31 00:00:00 14.2 10 Oeste 29 Oeste 0 920.4 0.9 79
2017-07-30 23:00:00 15 10 Oeste 30 Oeste 0 920.2 0.8 74
2017-07-30 22:00:00 16.7 9 Oeste 25 Oeste 0 919.6 -0.1 63
2017-07-30 21:00:00 19.2 12 Oeste 31 Noroeste 0 919.5 -0.4 48
2017-07-30 20:00:00 21 9 Oeste 29 Noroeste 0 919.4 -0.9 42
2017-07-30 19:00:00 23 12 Noroeste 29 Oeste 0 919.7 -0.8 39
2017-07-30 18:00:00 23.8 13 Noroeste 28 Oeste 0 919.9 -1 39
2017-07-30 17:00:00 23.9 11 Noroeste 29 Oeste 0 920.3 -0.8 38
2017-07-30 16:00:00 23.6 10 Noroeste 28 Oeste 0 920.5 -0.3 38
2017-07-30 15:00:00 23.9 14 Oeste 32 Noroeste 0 920.9 -0.3 39
2017-07-30 14:00:00 22.6 16 Oeste 40 Oeste 0 921.1 -0.2 41
2017-07-30 13:00:00 22.6 13 Oeste 30 Oeste 0 920.8 -0.6 42
2017-07-30 12:00:00 22.4 11 Oeste 27 Oeste 0 921.2 -0.3 43
2017-07-30 11:00:00 19.5 9 Oeste 24 Sudoeste 0 921.3 0.1 55
2017-07-30 10:00:00 19.1 8 Oeste 22 Sudoeste 0 921.4 0.4 56
2017-07-30 09:00:00 16.8 5 Oeste 12 Oeste 0 921.5 0.2 71
2017-07-30 08:00:00 13.7 2 Sudoeste 9 Oeste 0 921.2 -0.4 80
2017-07-30 07:00:00 14.7 4 Oeste 15 Oeste 0 921 -1.1 78
2017-07-30 06:00:00 15.6 8 Oeste 24 Oeste 0 921.3 -1.2 77
2017-07-30 05:00:00 16 9 Oeste 20 Oeste 0 921.6 -1.4 76
2017-07-30 04:00:00 15.8 5 Oeste 11 Oeste 0 922.1 -1.2 77
2017-07-30 03:00:00 15.7 3 Oeste 13 Oeste 0 922.5 -0.8 78
2017-07-30 02:00:00 15.3 5 Noroeste 17 Sudoeste 0 923 0.1 78
2017-07-30 01:00:00 16.4 5 Oeste 15 Oeste 0 923.3 1.1 80
2017-07-30 00:00:00 16.7 5 Oeste 30 Oeste 0 923.3 1 78
2017-07-29 23:00:00 18 12 Oeste 31 Oeste 0 922.9 0.8 73
2017-07-29 22:00:00 19.5 15 Oeste 34 Oeste 0 922.2 0.5 67
2017-07-29 21:00:00 21.7 10 Noroeste 30 Oeste 0 922.3 0.5 60
2017-07-29 20:00:00 24.3 12 Oeste 34 Oeste 0 922.1 0.3 54
2017-07-29 19:00:00 27.6 17 Oeste 35 Oeste 0 921.7 -0.4 42
2017-07-29 18:00:00 29 14 Oeste 34 Oeste 0 921.8 -0.7 39
2017-07-29 17:00:00 29.4 15 Oeste 37 Oeste 0 921.8 -1.3 35
2017-07-29 16:00:00 29.3 15 Oeste 34 Oeste 0 922.1 -1.5 34
2017-07-29 15:00:00 28.6 14 Oeste 33 Oeste 0 922.5 -1.2 33
2017-07-29 14:00:00 27.7 13 Oeste 28 Oeste 0 923.1 -0.8 38
2017-07-29 13:00:00 26.6 13 Oeste 29 Oeste 0 923.6 -0.3 44
2017-07-29 12:00:00 25.2 10 Oeste 24 Noroeste 0 923.7 -0.1 47
2017-07-29 11:00:00 23.5 9 Oeste 22 Oeste 0 923.9 0.2 51
2017-07-29 10:00:00 21.3 7 Oeste 15 Noroeste 0 923.9 0.6 63
2017-07-29 09:00:00 18.6 6 Noroeste 13 Oeste 0 923.8 0.5 79
2017-07-29 08:00:00 16.1 6 Oeste 14 Noroeste 0 923.7 0.5 89
2017-07-29 07:00:00 16 5 Oeste 15 Oeste 0 923.3 0 87
2017-07-29 06:00:00 16.1 9 Oeste 17 Noroeste 0 923.3 -0.2 90
2017-07-29 05:00:00 16.2 7 Noroeste 19 Oeste 0 923.2 -0.6 88
2017-07-29 04:00:00 15.9 10 Oeste 18 Oeste 0 923.3 -1.1 89
2017-07-29 03:00:00 16.2 7 Oeste 16 Noroeste 0 923.5 -1 86
2017-07-29 02:00:00 17.2 5 Noroeste 13 Oeste 0 923.8 -0.9 83
2017-07-29 01:00:00 18.9 7 Oeste 19 Oeste 0 924.4 0.1 78
2017-07-29 00:00:00 18.8 6 Oeste 14 Oeste 0 924.5 0.6 76
2017-07-28 23:00:00 19.4 7 Oeste 22 Noroeste 0 924.7 1.1 72
2017-07-28 22:00:00 20.8 7 Oeste 27 Oeste 0 924.3 0.8 65
2017-07-28 21:00:00 23.2 12 Oeste 28 Oeste 0 923.9 0.3 53
2017-07-28 20:00:00 24.1 11 Oeste 26 Oeste 0 923.6 0.3 44
2017-07-28 19:00:00 27.3 12 Oeste 30 Sudoeste 0 923.5 0.1 33
2017-07-28 18:00:00 24.9 12 Oeste 34 Oeste 0 923.6 0 36
2017-07-28 17:00:00 27.7 16 Oeste 36 Oeste 0 923.3 -0.6 26
2017-07-28 16:00:00 28.9 12 Noroeste 36 Oeste 0 923.4 -0.7 26
2017-07-28 15:00:00 28.7 11 Noroeste 26 Norte 0 923.6 -0.3 19
2017-07-28 14:00:00 27.8 7 Noroeste 20 Oeste 0 923.9 -0.3 11
2017-07-28 13:00:00 27 8 Noroeste 20 Noroeste 0 924.1 0 14
2017-07-28 12:00:00 24.5 4 Este 13 Sudeste 0 923.9 0.1 33
2017-07-28 11:00:00 22.3 4 Norte 11 Nordeste 0 924.2 0.8 38
2017-07-28 10:00:00 18.9 6 Noroeste 13 Noroeste 0 924.1 0.6 44
2017-07-28 09:00:00 14.3 8 Noroeste 14 Noroeste 0 923.8 0.5 59
2017-07-28 08:00:00 9.8 8 Noroeste 15 Noroeste 0 923.4 0.2 72
2017-07-28 07:00:00 10.1 10 Noroeste 17 Noroeste 0 923.5 0.1 77
2017-07-28 06:00:00 11.1 9 Noroeste 15 Noroeste 0 923.3 -0.1 82
2017-07-28 05:00:00 12.6 9 Noroeste 16 Oeste 0 923.2 -0.2 87
2017-07-28 04:00:00 14.4 4 Oeste 17 Oeste 0 923.4 -0.1 88
2017-07-28 03:00:00 14.8 8 Oeste 15 Oeste 0 923.4 -0.2 87
2017-07-28 02:00:00 16.6 8 Oeste 16 Oeste 0 923.4 -0.1 82
2017-07-28 01:00:00 18 6 Oeste 15 Oeste 0 923.5 0.6 80
2017-07-28 00:00:00 18.4 6 Oeste 14 Oeste 0 923.6 1.3 78
2017-07-27 23:00:00 18.9 8 Oeste 21 Oeste 0 923.5 1.6 76
2017-07-27 22:00:00 20.7 9 Oeste 21 Oeste 0 922.9 1 65
2017-07-27 21:00:00 22.8 9 Oeste 27 Noroeste 0 922.3 0.4 58
2017-07-27 20:00:00 24.9 11 Noroeste 31 Oeste 0 921.9 -0.3 52
2017-07-27 19:00:00 28 12 Oeste 31 Noroeste 0 921.9 -0.4 41
2017-07-27 18:00:00 29 12 Oeste 32 Oeste 0 921.9 -0.4 38
2017-07-27 17:00:00 28.7 12 Oeste 37 Noroeste 0 922.2 -0.4 37
2017-07-27 16:00:00 28.5 14 Noroeste 30 Oeste 0 922.3 -0.5 40
2017-07-27 15:00:00 28.5 12 Noroeste 27 Oeste 0 922.3 -0.8 36
2017-07-27 14:00:00 27.9 10 Noroeste 26 Noroeste 0 922.6 -0.6 39
2017-07-27 13:00:00 27.2 8 Noroeste 21 Noroeste 0 922.8 -0.2 40
2017-07-27 12:00:00 25.7 6 Noroeste 17 Oeste 0 923.1 0.4 41
2017-07-27 11:00:00 23.7 9 Noroeste 18 Noroeste 0 923.2 0.8 50
2017-07-27 10:00:00 22.1 5 Noroeste 12 Noroeste 0 923 0.6 53
2017-07-27 09:00:00 17.4 6 Noroeste 15 Noroeste 0 922.7 0.4 63
2017-07-27 08:00:00 13 9 Noroeste 15 Noroeste 0 922.4 -0.1 75
2017-07-27 07:00:00 12 8 Noroeste 16 Noroeste 0 922.4 -0.2 77
2017-07-27 06:00:00 12.5 8 Noroeste 13 Noroeste 0 922.3 -0.4 81
2017-07-27 05:00:00 13.1 6 Oeste 15 Oeste 0 922.5 -0.4 78
2017-07-27 04:00:00 14.2 8 Oeste 16 Oeste 0 922.6 -0.6 73
2017-07-27 03:00:00 15.2 8 Noroeste 19 Oeste 0 922.7 -0.5 71
2017-07-27 02:00:00 15.3 8 Oeste 16 Noroeste 0 922.9 -0.3 67
2017-07-27 01:00:00 16 8 Noroeste 17 Oeste 0 923.2 0.5 61
2017-07-27 00:00:00 17.3 7 Noroeste 12 Oeste 0 923.2 1 56
2017-07-26 23:00:00 19.7 6 Oeste 13 Oeste 0 923.2 1.2 48
2017-07-26 22:00:00 22.3 9 Oeste 19 Oeste 0 922.7 0.7 39
2017-07-26 21:00:00 24.7 8 Oeste 27 Oeste 0 922.2 0 30
2017-07-26 20:00:00 27.1 9 Noroeste 23 Oeste 0 922 -0.5 26
2017-07-26 19:00:00 30.1 9 Oeste 27 Oeste 0 922 -1 23
2017-07-26 18:00:00 30.1 13 Oeste 31 Sudoeste 0 922.2 -1.1 25
2017-07-26 17:00:00 29.6 11 Oeste 33 Oeste 0 922.5 -1 24
2017-07-26 16:00:00 29.5 9 Oeste 29 Oeste 0 923 -0.6 23
2017-07-26 15:00:00 29.6 9 Oeste 25 Oeste 0 923.3 -0.2 23
2017-07-26 14:00:00 28.8 9 Noroeste 25 Noroeste 0 923.5 -0.1 26
2017-07-26 13:00:00 27.5 7 Oeste 21 Noroeste 0 923.6 -0.1 29
2017-07-26 12:00:00 26.3 4 Oeste 11 Sudeste 0 923.5 -0.1 33
2017-07-26 11:00:00 23.1 4 Este 8 Este 0 923.6 0.3 45
2017-07-26 10:00:00 20.5 5 Este 8 Sudeste 0 923.7 0.7 57
2017-07-26 09:00:00 17.4 3 Noroeste 12 Noroeste 0 923.6 0.4 66
2017-07-26 08:00:00 12.6 6 Noroeste 14 Noroeste 0 923.3 0 81
2017-07-26 07:00:00 11.6 7 Noroeste 10 Noroeste 0 923 -0.6 82
2017-07-26 06:00:00 12.5 6 Noroeste 11 Noroeste 0 923.2 -0.3 79
2017-07-26 05:00:00 12.7 8 Noroeste 15 Oeste 0 923.3 -0.6 79
2017-07-26 04:00:00 13.4 8 Oeste 18 Oeste 0 923.6 -0.3 77
2017-07-26 03:00:00 13.9 8 Noroeste 18 Oeste 0 923.5 -0.7 76
2017-07-26 02:00:00 14.7 10 Noroeste 22 Oeste 0 923.9 -0.2 74
2017-07-26 01:00:00 15.3 10 Noroeste 20 Oeste 0 923.9 0.2 72
2017-07-26 00:00:00 16.4 11 Oeste 24 Oeste 0 924.2 0.6 67
2017-07-25 23:00:00 17.6 12 Oeste 30 Oeste 0 924.1 0.7 62
2017-07-25 22:00:00 19.1 12 Oeste 27 Noroeste 0 923.7 0.3 59
2017-07-25 21:00:00 21.5 14 Oeste 27 Oeste 0 923.6 0.2 51
2017-07-25 20:00:00 23.5 10 Noroeste 30 Noroeste 0 923.4 -0.3 47
2017-07-25 19:00:00 25.7 10 Noroeste 36 Oeste 0 923.4 -0.8 41
2017-07-25 18:00:00 27.1 10 Noroeste 33 Noroeste 0 923.4 -1.2 33
2017-07-25 17:00:00 27.1 13 Oeste 30 Norte 0 923.7 -1.4 33
2017-07-25 16:00:00 26.5 11 Oeste 27 Oeste 0 924.2 -1.3 34
2017-07-25 15:00:00 25.8 9 Noroeste 28 Oeste 0 924.6 -1.2 36
2017-07-25 14:00:00 24.7 10 Oeste 25 Noroeste 0 925.1 -1.1 40
2017-07-25 13:00:00 22.8 7 Oeste 18 Noroeste 0 925.5 -0.8 46
2017-07-25 12:00:00 20.7 6 Noroeste 17 Oeste 0 925.8 -0.2 50
2017-07-25 11:00:00 18 6 Oeste 16 Noroeste 0 926.2 0.1 63
2017-07-25 10:00:00 15.6 8 Oeste 16 Oeste 0 926.3 0 70
2017-07-25 09:00:00 12 3 Norte 8 Noroeste 0 926 -0.1 84
2017-07-25 08:00:00 10.6 6 Oeste 17 Oeste 0 926.1 -0.3 90
2017-07-25 07:00:00 10.5 9 Noroeste 19 Noroeste 0 926.3 -0.2 94
2017-07-25 06:00:00 10.2 6 Noroeste 19 Oeste 0 926.1 -1 93
2017-07-25 05:00:00 10.3 10 Oeste 19 Oeste 0 926.4 -1.2 93
2017-07-25 04:00:00 10.5 8 Noroeste 17 Oeste 0 926.5 -1.3 91
2017-07-25 03:00:00 11.4 7 Oeste 23 Oeste 0 927.1 -0.8 90
2017-07-25 02:00:00 11.9 12 Oeste 25 Oeste 0 927.6 -0.2 89
2017-07-25 01:00:00 12.6 9 Oeste 33 Oeste 0 927.8 0.1 87
2017-07-25 00:00:00 13.3 11 Oeste 26 Oeste 0 927.9 0.4 85
2017-07-24 23:00:00 14.4 10 Oeste 25 Oeste 0 927.8 0.5 80
2017-07-24 22:00:00 16.4 12 Oeste 27 Oeste 0 927.7 0.4 68
2017-07-24 21:00:00 18.4 12 Oeste 28 Oeste 0 927.5 0.1 61
2017-07-24 20:00:00 20.7 11 Oeste 31 Oeste 0 927.3 -0.6 52
2017-07-24 19:00:00 23.5 11 Noroeste 33 Norte 0 927.3 -0.7 42
2017-07-24 18:00:00 23.8 12 Noroeste 31 Noroeste 0 927.4 -0.8 39
2017-07-24 17:00:00 23.7 12 Noroeste 32 Norte 0 927.9 -0.6 39
2017-07-24 16:00:00 24 11 Noroeste 32 Noroeste 0 928 -0.6 39
2017-07-24 15:00:00 23.5 12 Noroeste 31 Norte 0 928.2 -0.7 43
2017-07-24 14:00:00 23.1 12 Noroeste 33 Oeste 0.2 928.5 -0.4 46
2017-07-24 13:00:00 22.4 12 Noroeste 24 Oeste 0 928.6 -0.2 51
2017-07-24 12:00:00 21.3 8 Noroeste 26 Noroeste 0 928.9 0.6 53
2017-07-24 11:00:00 19.5 9 Noroeste 22 Noroeste 0 928.9 0.7 64
2017-07-24 10:00:00 16.2 7 Noroeste 18 Oeste 0 928.8 0.9 78
2017-07-24 09:00:00 15.5 5 Oeste 16 Noroeste 0 928.3 0.5 84
2017-07-24 08:00:00 14.5 4 Noroeste 17 Oeste 0 928.2 0.5 87
2017-07-24 07:00:00 14.4 5 Oeste 13 Oeste 0 927.9 0.1 88
2017-07-24 06:00:00 14.5 6 Oeste 17 Noroeste 0 927.8 -0.1 88
2017-07-24 05:00:00 14.9 6 Noroeste 27 Oeste 0 927.7 -0.5 90
2017-07-24 04:00:00 15.6 7 Noroeste 22 Oeste 0.2 927.8 -0.4 90
2017-07-24 03:00:00 16 8 Oeste 20 Oeste 0 927.9 -0.2 88
2017-07-24 02:00:00 16.4 7 Oeste 17 Oeste 0 928.2 0.3 86
2017-07-24 01:00:00 16.7 8 Oeste 21 Oeste 0 928.2 0.7 83
2017-07-24 00:00:00 17.2 9 Oeste 24 Oeste 0 928.1 1 82
2017-07-23 23:00:00 18.1 8 Oeste 19 Oeste 0 927.9 1.4 76
2017-07-23 22:00:00 18.8 6 Oeste 29 Noroeste 0 927.5 1.2 68
2017-07-23 21:00:00 20.4 10 Noroeste 31 Noroeste 0 927.1 0.4 64
2017-07-23 20:00:00 21.5 12 Noroeste 28 Oeste 0 926.5 -0.5 58
2017-07-23 19:00:00 24.8 10 Noroeste 28 Noroeste 0 926.3 -0.7 47
2017-07-23 18:00:00 24.2 12 Oeste 27 Norte 0 926.7 -0.6 47
2017-07-23 17:00:00 24.9 11 Noroeste 31 Noroeste 0 927 -0.3 43
2017-07-23 16:00:00 24.9 11 Noroeste 31 Oeste 0 927 -0.3 43
2017-07-23 15:00:00 24.5 13 Oeste 31 Oeste 0 927.3 0.1 44
2017-07-23 14:00:00 23.7 11 Oeste 26 Noroeste 0 927.3 0.4 43
2017-07-23 13:00:00 22.6 12 Oeste 30 Noroeste 0 927.3 0.5 41
2017-07-23 12:00:00 21.9 10 Oeste 20 Oeste 0 927.2 0.7 44
2017-07-23 11:00:00 19.8 8 Oeste 19 Oeste 0 926.9 0.8 52
2017-07-23 10:00:00 17 6 Noroeste 18 Noroeste 0 926.8 1.2 65
2017-07-23 09:00:00 13.4 5 Oeste 14 Oeste 0 926.5 1 72
2017-07-23 08:00:00 9.4 6 Noroeste 11 Noroeste 0 926.1 0.7 88
2017-07-23 07:00:00 9.1 3 Sudoeste 15 Oeste 0 925.6 0 87
2017-07-23 06:00:00 9.6 5 Oeste 18 Noroeste 0 925.5 -0.3 89
2017-07-23 05:00:00 9.6 7 Noroeste 15 Oeste 0 925.4 -0.5 89
2017-07-23 04:00:00 10.3 6 Noroeste 27 Oeste 0 925.6 0 88
2017-07-23 03:00:00 11.1 10 Oeste 22 Oeste 0 925.8 0.3 88
2017-07-23 02:00:00 11.9 4 Oeste 26 Oeste 0 925.9 0.7 84
2017-07-23 01:00:00 13 11 Oeste 32 Oeste 0 925.6 1.2 82
2017-07-23 00:00:00 13.8 12 Oeste 26 Oeste 0 925.5 1.8 78